createdAt,value
2018-03-28T00:01:30.608Z,9.00
2018-03-28T00:03:58.063Z,9.00
2018-03-28T00:06:25.547Z,9.00
2018-03-28T00:08:53.047Z,9.00
2018-03-28T00:11:20.515Z,9.10
2018-03-28T00:13:48.001Z,9.00
2018-03-28T00:16:15.454Z,9.00
2018-03-28T00:18:42.925Z,9.10
2018-03-28T00:21:10.386Z,9.00
2018-03-28T00:23:39.365Z,9.00
2018-03-28T00:26:06.816Z,9.00
2018-03-28T00:28:34.285Z,9.10
2018-03-28T00:31:01.752Z,9.10
2018-03-28T00:33:29.221Z,9.10
2018-03-28T00:35:56.686Z,9.10
2018-03-28T00:38:24.917Z,9.10
2018-03-28T00:40:52.380Z,9.10
2018-03-28T00:43:19.848Z,9.10
2018-03-28T00:45:47.311Z,9.10
2018-03-28T00:48:14.778Z,9.10
2018-03-28T00:50:42.237Z,9.10
2018-03-28T00:53:09.706Z,9.00
2018-03-28T00:55:37.156Z,9.10
2018-03-28T00:58:04.644Z,9.20
2018-03-28T01:00:32.872Z,9.20
2018-03-28T01:03:00.343Z,9.10
2018-03-28T01:05:27.801Z,9.20
2018-03-28T01:07:55.264Z,9.20
2018-03-28T01:10:22.752Z,9.20
2018-03-28T01:12:50.218Z,9.20
2018-03-28T01:15:17.686Z,9.30
2018-03-28T01:17:45.163Z,9.30
2018-03-28T01:20:12.617Z,9.30
2018-03-28T01:22:40.100Z,9.30
2018-03-28T01:25:07.569Z,9.30
2018-03-28T01:27:35.046Z,9.40
2018-03-28T01:30:03.279Z,9.40
2018-03-28T01:32:30.733Z,9.40
2018-03-28T01:34:58.223Z,9.40
2018-03-28T01:37:25.686Z,9.40
2018-03-28T01:39:53.148Z,9.40
2018-03-28T01:42:21.371Z,9.50
2018-03-28T01:44:48.837Z,9.50
2018-03-28T01:47:16.297Z,9.40
2018-03-28T01:49:43.783Z,9.40
2018-03-28T01:52:11.248Z,9.40
2018-03-28T01:54:39.481Z,9.30
2018-03-28T01:57:06.941Z,9.30
2018-03-28T01:59:34.412Z,9.40
2018-03-28T02:02:01.879Z,9.50
2018-03-28T02:04:29.344Z,9.50
2018-03-28T02:06:56.844Z,9.40
2018-03-28T02:09:25.054Z,9.40
2018-03-28T02:11:52.505Z,9.40
2018-03-28T02:14:19.974Z,9.40
2018-03-28T02:16:47.436Z,9.40
2018-03-28T02:19:14.939Z,9.40
2018-03-28T02:21:42.389Z,9.40
2018-03-28T02:24:10.617Z,9.60
2018-03-28T02:26:38.078Z,9.50
2018-03-28T02:29:05.539Z,9.50
2018-03-28T02:31:33.006Z,9.50
2018-03-28T02:34:00.471Z,9.50
2018-03-28T02:36:27.934Z,9.50
2018-03-28T02:38:55.390Z,9.50
2018-03-28T02:41:23.674Z,9.40
2018-03-28T02:43:51.100Z,9.40
2018-03-28T02:46:18.610Z,9.40
2018-03-28T02:48:46.093Z,9.50
2018-03-28T02:51:13.572Z,9.50
2018-03-28T02:53:41.025Z,9.40
2018-03-28T02:56:08.513Z,9.40
2018-03-28T02:58:35.981Z,9.40
2018-03-28T03:01:04.222Z,9.40
2018-03-28T03:03:31.693Z,9.40
2018-03-28T03:05:59.166Z,9.40
2018-03-28T03:08:27.389Z,9.50
2018-03-28T03:10:54.870Z,9.50
2018-03-28T03:13:22.325Z,9.50
2018-03-28T03:15:49.791Z,9.50
2018-03-28T03:18:17.253Z,9.50
2018-03-28T03:20:44.728Z,9.50
2018-03-28T03:23:13.600Z,9.50
2018-03-28T03:25:41.083Z,9.50
2018-03-28T03:28:09.305Z,9.70
2018-03-28T03:30:36.781Z,9.70
2018-03-28T03:33:04.240Z,9.60
2018-03-28T03:35:31.728Z,9.50
2018-03-28T03:37:59.949Z,9.40
2018-03-28T03:40:27.412Z,9.40
2018-03-28T03:42:54.879Z,9.50
2018-03-28T03:45:22.346Z,9.50
2018-03-28T03:47:49.817Z,9.40
2018-03-28T03:50:17.262Z,9.40
2018-03-28T03:52:44.726Z,9.40
2018-03-28T03:55:12.175Z,9.40
2018-03-28T03:57:39.641Z,9.40
2018-03-28T04:00:07.104Z,9.40
2018-03-28T04:02:34.575Z,9.30
2018-03-28T04:05:02.056Z,9.30
2018-03-28T04:07:29.515Z,9.40
2018-03-28T04:09:56.977Z,9.50
2018-03-28T04:12:24.442Z,9.40
2018-03-28T04:14:51.927Z,9.50
2018-03-28T04:17:19.389Z,9.40
2018-03-28T04:19:46.851Z,9.40
2018-03-28T04:22:14.312Z,9.30
2018-03-28T04:24:41.764Z,9.40
2018-03-28T04:27:09.226Z,9.30
2018-03-28T04:29:36.692Z,9.40
2018-03-28T04:32:04.160Z,9.40
2018-03-28T04:34:31.875Z,9.40
2018-03-28T04:36:59.367Z,9.40
2018-03-28T04:39:26.826Z,9.40
2018-03-28T04:41:54.270Z,9.40
2018-03-28T04:44:21.752Z,9.40
2018-03-28T04:46:49.207Z,9.40
2018-03-28T04:49:16.687Z,9.50
2018-03-28T04:51:44.899Z,9.50
2018-03-28T04:54:12.377Z,9.50
2018-03-28T04:56:39.833Z,9.50
2018-03-28T04:59:07.301Z,9.50
2018-03-28T05:01:34.767Z,9.50
2018-03-28T05:04:02.279Z,9.50
2018-03-28T05:06:30.476Z,9.50
2018-03-28T05:08:57.953Z,9.50
2018-03-28T05:11:25.405Z,9.50
2018-03-28T05:13:53.634Z,9.50
2018-03-28T05:16:21.096Z,9.40
2018-03-28T05:18:48.589Z,9.40
2018-03-28T05:21:16.044Z,9.40
2018-03-28T05:23:43.515Z,9.40
2018-03-28T05:26:10.984Z,9.40
2018-03-28T05:28:38.448Z,9.40
2018-03-28T05:31:06.688Z,9.40
2018-03-28T05:33:34.156Z,9.40
2018-03-28T05:36:01.600Z,9.40
2018-03-28T05:38:29.097Z,9.40
2018-03-28T05:40:57.371Z,9.40
2018-03-28T05:43:24.790Z,9.40
2018-03-28T05:45:52.258Z,9.50
2018-03-28T05:48:19.710Z,9.40
2018-03-28T05:50:47.190Z,9.40
2018-03-28T05:53:14.705Z,9.40
2018-03-28T05:55:42.172Z,9.40
2018-03-28T05:58:09.657Z,9.40
2018-03-28T06:00:37.123Z,9.50
2018-03-28T06:03:04.657Z,9.50
2018-03-28T06:05:32.304Z,9.50
2018-03-28T06:07:59.787Z,9.50
2018-03-28T06:10:27.263Z,9.60
2018-03-28T06:12:54.746Z,9.50
2018-03-28T06:15:22.964Z,9.50
2018-03-28T06:17:50.420Z,9.50
2018-03-28T06:20:17.907Z,9.50
2018-03-28T06:22:45.357Z,9.50
2018-03-28T06:25:12.819Z,9.60
2018-03-28T06:27:40.270Z,9.60
2018-03-28T06:30:07.747Z,9.60
2018-03-28T06:32:35.191Z,9.60
2018-03-28T06:35:02.663Z,9.60
2018-03-28T06:37:30.885Z,9.70
2018-03-28T06:39:58.352Z,9.70
2018-03-28T06:42:25.806Z,9.70
2018-03-28T06:44:53.272Z,9.80
2018-03-28T06:47:20.764Z,9.90
2018-03-28T06:49:48.222Z,10.00
2018-03-28T06:52:15.685Z,10.10
2018-03-28T06:54:43.940Z,10.20
2018-03-28T06:57:11.405Z,10.20
2018-03-28T06:59:38.971Z,10.30
2018-03-28T07:02:07.185Z,10.20
2018-03-28T07:04:34.660Z,10.20
2018-03-28T07:07:02.188Z,10.30
2018-03-28T07:09:29.655Z,10.30
2018-03-28T07:11:57.120Z,10.30
2018-03-28T07:14:24.586Z,10.40
2018-03-28T07:16:52.061Z,10.50
2018-03-28T07:19:19.521Z,10.60
2018-03-28T07:21:46.996Z,10.60
2018-03-28T07:24:14.477Z,10.60
2018-03-28T07:26:42.731Z,10.80
2018-03-28T07:29:10.228Z,10.90
2018-03-28T07:31:37.705Z,10.90
2018-03-28T07:34:05.163Z,11.10
2018-03-28T07:36:32.641Z,11.10
2018-03-28T07:39:00.101Z,11.20
2018-03-28T07:41:27.585Z,11.40
2018-03-28T07:43:55.041Z,11.40
2018-03-28T07:46:22.509Z,11.50
2018-03-28T07:48:49.971Z,11.70
2018-03-28T07:51:18.215Z,12.10
2018-03-28T07:53:45.695Z,12.10
2018-03-28T07:56:13.173Z,12.30
2018-03-28T07:58:40.650Z,12.60
2018-03-28T08:01:08.132Z,12.90
2018-03-28T08:03:35.604Z,13.00
2018-03-28T08:06:03.091Z,13.20
2018-03-28T08:08:30.565Z,13.60
2018-03-28T08:10:58.034Z,14.00
2018-03-28T08:13:25.512Z,14.20
2018-03-28T08:15:52.970Z,14.30
2018-03-28T08:18:20.444Z,14.40
2018-03-28T08:20:47.905Z,14.00
2018-03-28T08:23:15.381Z,14.00
2018-03-28T08:25:42.864Z,14.00
2018-03-28T08:28:10.338Z,13.70
2018-03-28T08:30:37.812Z,13.70
2018-03-28T08:33:05.309Z,13.70
2018-03-28T08:35:32.765Z,13.50
2018-03-28T08:38:00.238Z,13.40
2018-03-28T08:40:28.474Z,13.30
2018-03-28T08:42:55.955Z,13.20
2018-03-28T08:45:23.408Z,13.10
2018-03-28T08:47:50.881Z,13.10
2018-03-28T08:50:18.351Z,13.00
2018-03-28T08:52:46.583Z,12.80
2018-03-28T08:55:14.045Z,12.80
2018-03-28T08:57:41.596Z,12.70
2018-03-28T09:00:09.056Z,12.70
2018-03-28T09:02:36.548Z,12.70
2018-03-28T09:05:04.778Z,12.70
2018-03-28T09:07:32.249Z,12.70
2018-03-28T09:09:59.723Z,12.50
2018-03-28T09:12:27.182Z,12.40
2018-03-28T09:14:54.645Z,12.20
2018-03-28T09:17:22.104Z,12.20
2018-03-28T09:19:49.570Z,12.00
2018-03-28T09:22:17.808Z,11.80
2018-03-28T09:24:45.310Z,11.80
2018-03-28T09:27:13.541Z,11.70
2018-03-28T09:29:41.041Z,11.70
2018-03-28T09:32:09.260Z,11.60
2018-03-28T09:34:36.733Z,11.60
2018-03-28T09:37:04.203Z,11.60
2018-03-28T09:39:31.676Z,11.80
2018-03-28T09:41:59.171Z,12.00
2018-03-28T09:44:26.633Z,12.30
2018-03-28T09:46:54.102Z,12.60
2018-03-28T09:49:21.581Z,12.80
2018-03-28T09:51:49.041Z,12.90
2018-03-28T09:54:16.512Z,13.00
2018-03-28T09:56:43.971Z,13.00
2018-03-28T09:59:11.452Z,13.00
2018-03-28T10:04:43.216Z,12.60
2018-03-28T10:07:10.758Z,12.50
2018-03-28T10:09:38.237Z,12.40
2018-03-28T10:12:05.701Z,12.40
2018-03-28T10:14:33.948Z,12.80
2018-03-28T10:17:01.420Z,12.70
2018-03-28T10:19:28.896Z,12.90
2018-03-28T10:21:57.127Z,13.00
2018-03-28T10:24:24.604Z,12.90
2018-03-28T10:26:52.084Z,13.20
2018-03-28T10:29:20.312Z,13.10
2018-03-28T10:31:47.773Z,13.10
2018-03-28T10:34:15.241Z,13.10
2018-03-28T10:36:42.751Z,13.20
2018-03-28T10:39:10.220Z,13.30
2018-03-28T10:41:37.693Z,13.40
2018-03-28T10:44:05.169Z,13.40
2018-03-28T10:46:32.646Z,13.40
2018-03-28T10:49:00.104Z,13.50
2018-03-28T10:51:27.581Z,13.60
2018-03-28T10:53:55.801Z,13.60
2018-03-28T10:56:23.284Z,13.60
2018-03-28T10:58:50.743Z,13.60
2018-03-28T11:01:19.719Z,13.80
2018-03-28T11:03:47.177Z,13.80
2018-03-28T11:06:14.654Z,13.70
2018-03-28T11:08:42.132Z,13.60
2018-03-28T11:11:09.620Z,13.60
2018-03-28T11:13:37.082Z,13.50
2018-03-28T11:16:04.554Z,13.40
2018-03-28T11:18:32.018Z,13.40
2018-03-28T11:20:59.498Z,13.40
2018-03-28T11:23:26.960Z,13.30
2018-03-28T11:25:54.473Z,13.20
2018-03-28T11:28:22.668Z,13.30
2018-03-28T11:30:50.154Z,13.20
2018-03-28T11:33:17.615Z,13.20
2018-03-28T11:35:45.144Z,13.30
2018-03-28T11:38:12.568Z,13.40
2018-03-28T11:40:40.038Z,13.40
2018-03-28T11:43:07.504Z,13.30
2018-03-28T11:45:34.964Z,13.30
2018-03-28T11:48:02.439Z,13.30
2018-03-28T11:50:29.912Z,13.30
2018-03-28T11:52:57.440Z,13.10
2018-03-28T11:55:25.624Z,13.20
2018-03-28T11:57:53.117Z,13.10
2018-03-28T12:00:22.411Z,13.10
2018-03-28T12:02:49.877Z,13.10
2018-03-28T12:05:17.364Z,13.00
2018-03-28T12:07:44.860Z,12.90
2018-03-28T12:10:12.367Z,12.80
2018-03-28T12:12:40.634Z,12.60
2018-03-28T12:15:08.861Z,12.60
2018-03-28T12:17:36.340Z,12.50
2018-03-28T12:20:03.800Z,12.50
2018-03-28T12:22:31.272Z,12.50
2018-03-28T12:24:59.548Z,12.50
2018-03-28T12:27:27.011Z,12.50
2018-03-28T12:29:55.241Z,12.40
2018-03-28T12:32:22.723Z,12.40
2018-03-28T12:34:50.185Z,12.40
2018-03-28T12:37:17.663Z,12.40
2018-03-28T12:39:45.900Z,12.40
2018-03-28T12:42:13.385Z,12.30
2018-03-28T12:44:40.849Z,12.30
2018-03-28T12:47:08.307Z,12.30
2018-03-28T12:49:35.803Z,12.20
2018-03-28T12:52:03.264Z,12.20
2018-03-28T12:54:30.808Z,12.20
2018-03-28T12:56:58.310Z,12.30
2018-03-28T12:59:25.786Z,12.20
2018-03-28T13:01:53.255Z,12.20
2018-03-28T13:04:20.726Z,12.20
2018-03-28T13:06:48.964Z,12.30
2018-03-28T13:09:16.451Z,12.30
2018-03-28T13:11:43.920Z,12.30
2018-03-28T13:14:12.157Z,12.40
2018-03-28T13:16:39.628Z,12.30
2018-03-28T13:19:07.101Z,12.30
2018-03-28T13:21:34.605Z,12.40
2018-03-28T13:24:02.105Z,12.50
2018-03-28T13:26:29.564Z,12.50
2018-03-28T13:28:57.040Z,12.50
2018-03-28T13:31:25.270Z,12.60
2018-03-28T13:33:52.749Z,12.50
2018-03-28T13:36:20.215Z,12.50
2018-03-28T13:38:47.749Z,12.60
2018-03-28T13:41:15.209Z,12.60
2018-03-28T13:43:42.692Z,12.70
2018-03-28T13:46:10.160Z,12.70
2018-03-28T13:48:38.397Z,12.70
2018-03-28T13:51:05.856Z,12.70
2018-03-28T13:53:33.313Z,12.80
2018-03-28T13:56:00.786Z,12.80
2018-03-28T13:58:28.252Z,12.70
2018-03-28T14:00:55.733Z,12.70
2018-03-28T14:03:23.976Z,12.60
2018-03-28T14:05:51.453Z,12.60
2018-03-28T14:08:19.684Z,12.50
2018-03-28T14:10:47.163Z,12.50
2018-03-28T14:13:14.636Z,12.60
2018-03-28T14:15:42.126Z,12.50
2018-03-28T14:18:09.605Z,12.50
2018-03-28T14:20:37.072Z,12.50
2018-03-28T14:23:04.549Z,12.40
2018-03-28T14:25:32.018Z,12.30
2018-03-28T14:27:59.481Z,12.30
2018-03-28T14:30:26.950Z,12.20
2018-03-28T14:32:55.327Z,12.20
2018-03-28T14:35:23.584Z,12.10
2018-03-28T14:37:51.050Z,12.10
2018-03-28T14:40:18.527Z,12.10
2018-03-28T14:42:54.591Z,12.10
2018-03-28T14:45:14.315Z,12.00
2018-03-28T14:47:41.762Z,12.00
2018-03-28T14:50:09.242Z,12.10
2018-03-28T14:52:36.718Z,12.00
2018-03-28T14:55:04.994Z,12.10
2018-03-28T14:57:32.473Z,12.10
2018-03-28T15:00:00.710Z,12.00
2018-03-28T15:02:29.242Z,12.00
2018-03-28T15:04:56.723Z,12.10
2018-03-28T15:07:24.202Z,12.10
2018-03-28T15:09:51.690Z,12.00
2018-03-28T15:12:19.194Z,12.10
2018-03-28T15:14:46.654Z,12.10
2018-03-28T15:17:14.129Z,12.10
2018-03-28T15:19:41.610Z,12.10
2018-03-28T15:22:09.130Z,12.10
2018-03-28T15:24:36.602Z,12.00
2018-03-28T15:27:04.241Z,12.00
2018-03-28T15:29:31.770Z,12.00
2018-03-28T15:32:00.043Z,12.10
2018-03-28T15:34:28.299Z,12.10
2018-03-28T15:36:55.806Z,12.10
2018-03-28T15:39:23.313Z,12.10
2018-03-28T15:41:50.813Z,12.10
2018-03-28T15:44:18.312Z,12.10
2018-03-28T15:46:45.795Z,12.00
2018-03-28T15:49:13.283Z,12.10
2018-03-28T15:51:40.837Z,12.10
2018-03-28T15:54:09.101Z,12.10
2018-03-28T15:56:37.378Z,12.10
2018-03-28T15:59:05.686Z,12.20
2018-03-28T16:01:33.929Z,12.20
2018-03-28T16:04:01.419Z,12.10
2018-03-28T16:06:28.910Z,12.30
2018-03-28T16:08:56.429Z,12.30
2018-03-28T16:11:23.946Z,12.30
2018-03-28T16:13:51.454Z,12.30
2018-03-28T16:16:18.943Z,12.40
2018-03-28T16:18:46.452Z,12.40
2018-03-28T16:21:13.944Z,12.40
2018-03-28T16:23:41.434Z,12.40
2018-03-28T16:26:08.931Z,12.40
2018-03-28T16:28:36.446Z,12.40
2018-03-28T16:31:03.934Z,12.40
2018-03-28T16:33:32.200Z,12.50
2018-03-28T16:36:00.441Z,12.40
2018-03-28T16:38:27.955Z,12.40
2018-03-28T16:40:56.197Z,12.40
2018-03-28T16:43:23.741Z,12.40
2018-03-28T16:45:51.171Z,12.50
2018-03-28T16:48:18.691Z,12.40
2018-03-28T16:50:46.935Z,12.40
2018-03-28T16:53:14.450Z,12.40
2018-03-28T16:55:41.923Z,12.40
2018-03-28T16:58:09.469Z,12.40
2018-03-28T17:00:36.958Z,12.40
2018-03-28T17:03:04.450Z,12.40
2018-03-28T17:05:31.935Z,12.40
2018-03-28T17:07:59.442Z,12.30
2018-03-28T17:10:26.927Z,12.30
2018-03-28T17:12:55.182Z,12.40
2018-03-28T17:15:22.673Z,12.30
2018-03-28T17:17:50.200Z,12.30
2018-03-28T17:20:17.693Z,12.20
2018-03-28T17:22:45.176Z,12.20
2018-03-28T17:25:12.671Z,12.10
2018-03-28T17:27:40.191Z,12.10
2018-03-28T17:30:07.697Z,12.00
2018-03-28T17:32:35.265Z,11.90
2018-03-28T17:35:02.769Z,12.00
2018-03-28T17:37:30.315Z,12.00
2018-03-28T17:39:57.758Z,12.00
2018-03-28T17:42:26.003Z,11.80
2018-03-28T17:44:53.490Z,11.80
2018-03-28T17:47:21.013Z,11.70
2018-03-28T17:49:48.450Z,11.70
2018-03-28T17:52:15.937Z,11.50
2018-03-28T17:54:43.421Z,11.50
2018-03-28T17:57:11.671Z,11.40
2018-03-28T17:59:39.150Z,11.40
2018-03-28T18:02:07.391Z,11.40
2018-03-28T18:04:34.882Z,11.40
2018-03-28T18:07:03.142Z,11.40
2018-03-28T18:09:30.623Z,11.40
2018-03-28T18:11:58.869Z,11.30
2018-03-28T18:14:26.351Z,11.30
2018-03-28T18:16:54.607Z,11.30
2018-03-28T18:19:22.136Z,11.30
2018-03-28T18:21:49.636Z,11.30
2018-03-28T18:24:17.883Z,11.20
2018-03-28T18:26:45.342Z,11.20
2018-03-28T18:29:12.830Z,11.20
2018-03-28T18:31:40.301Z,11.10
2018-03-28T18:34:08.587Z,11.10
2018-03-28T18:36:36.175Z,11.10
2018-03-28T18:39:03.758Z,11.00
2018-03-28T18:41:31.343Z,11.00
2018-03-28T18:43:59.606Z,10.90
2018-03-28T18:46:27.141Z,10.90
2018-03-28T18:48:54.654Z,10.80
2018-03-28T18:51:22.148Z,10.70
2018-03-28T18:53:49.633Z,10.80
2018-03-28T18:56:17.337Z,10.80
2018-03-28T18:58:44.961Z,10.80
2018-03-28T19:01:12.453Z,10.80
2018-03-28T19:03:40.714Z,10.70
2018-03-28T19:06:08.981Z,10.80
2018-03-28T19:08:36.468Z,10.80
2018-03-28T19:11:04.716Z,10.70
2018-03-28T19:13:32.201Z,10.60
2018-03-28T19:16:00.450Z,10.60
2018-03-28T19:18:27.943Z,10.60
2018-03-28T19:20:55.474Z,10.60
2018-03-28T19:23:23.720Z,10.60
2018-03-28T19:25:51.206Z,10.60
2018-03-28T19:28:19.462Z,10.60
2018-03-28T19:30:46.921Z,10.60
2018-03-28T19:33:14.388Z,10.60
2018-03-28T19:35:41.848Z,10.60
2018-03-28T19:38:09.314Z,10.50
2018-03-28T19:40:36.804Z,10.60
2018-03-28T19:43:04.280Z,10.60
2018-03-28T19:45:31.741Z,10.60
2018-03-28T19:47:59.353Z,10.50
2018-03-28T19:50:27.588Z,10.60
2018-03-28T19:52:55.080Z,10.50
2018-03-28T19:55:22.551Z,10.50
2018-03-28T19:57:50.850Z,10.60
2018-03-28T20:00:18.311Z,10.60
2018-03-28T20:02:46.491Z,10.70
2018-03-28T20:05:13.969Z,10.60
2018-03-28T20:07:41.440Z,10.60
2018-03-28T20:10:08.910Z,10.60
2018-03-28T20:12:36.388Z,10.60
2018-03-28T20:15:03.856Z,10.60
2018-03-28T20:17:32.116Z,10.70
2018-03-28T20:19:59.572Z,10.70
2018-03-28T20:22:27.827Z,10.60
2018-03-28T20:24:55.288Z,10.60
2018-03-28T20:27:22.762Z,10.60
2018-03-28T20:29:50.235Z,10.60
2018-03-28T20:32:18.480Z,10.70
2018-03-28T20:34:45.972Z,10.60
2018-03-28T20:37:14.224Z,10.70
2018-03-28T20:39:41.680Z,10.70
2018-03-28T20:42:09.153Z,10.60
2018-03-28T20:44:37.410Z,10.70
2018-03-28T20:47:04.930Z,10.60
2018-03-28T20:49:32.434Z,10.60
2018-03-28T20:52:00.686Z,10.30
2018-03-28T20:54:28.191Z,10.30
2018-03-28T20:56:56.432Z,10.20
2018-03-28T20:59:23.937Z,10.20
2018-03-28T21:01:51.437Z,10.10
2018-03-28T21:04:18.934Z,10.00
2018-03-28T21:06:47.160Z,10.00
2018-03-28T21:09:14.630Z,10.00
2018-03-28T21:11:42.132Z,10.00
2018-03-28T21:14:10.372Z,9.90
2018-03-28T21:16:37.836Z,9.80
2018-03-28T21:19:05.313Z,9.90
2018-03-28T21:21:33.577Z,9.90
2018-03-28T21:24:01.057Z,9.80
2018-03-28T21:26:29.293Z,9.80
2018-03-28T21:28:56.767Z,9.70
2018-03-28T21:31:24.235Z,9.80
2018-03-28T21:33:52.512Z,9.70
2018-03-28T21:36:20.756Z,9.70
2018-03-28T21:38:48.216Z,9.70
2018-03-28T21:41:15.716Z,9.70
2018-03-28T21:43:43.944Z,9.60
2018-03-28T21:46:11.405Z,9.60
2018-03-28T21:48:38.907Z,9.60
2018-03-28T21:51:07.128Z,9.60
2018-03-28T21:53:34.588Z,9.60
2018-03-28T21:56:02.098Z,9.60
2018-03-28T21:58:30.327Z,9.60
2018-03-28T22:00:57.784Z,9.60
2018-03-28T22:03:25.252Z,9.60
2018-03-28T22:05:52.734Z,9.50
2018-03-28T22:08:20.964Z,9.50
2018-03-28T22:10:48.451Z,9.50
2018-03-28T22:13:15.946Z,9.60
2018-03-28T22:15:43.420Z,9.50
2018-03-28T22:18:10.871Z,9.50
2018-03-28T22:20:38.381Z,9.50
2018-03-28T22:23:05.841Z,9.50
2018-03-28T22:25:33.313Z,9.50
2018-03-28T22:28:00.775Z,9.50
2018-03-28T22:30:29.004Z,9.50
2018-03-28T22:32:56.470Z,9.40
2018-03-28T22:35:23.936Z,9.50
2018-03-28T22:37:51.402Z,9.40
2018-03-28T22:40:18.882Z,9.50
2018-03-28T22:42:47.106Z,9.40
2018-03-28T22:45:14.583Z,9.40
2018-03-28T22:47:42.036Z,9.30
2018-03-28T22:50:09.510Z,9.30
2018-03-28T22:52:36.994Z,9.30
2018-03-28T22:55:05.213Z,9.30
2018-03-28T22:57:32.697Z,9.20
2018-03-28T23:00:00.172Z,9.20
2018-03-28T23:02:28.421Z,9.10
2018-03-28T23:04:56.645Z,9.10
2018-03-28T23:07:24.115Z,9.10
2018-03-28T23:09:51.607Z,9.00
2018-03-28T23:12:19.170Z,9.00
2018-03-28T23:14:46.635Z,9.00
2018-03-28T23:17:14.105Z,8.90
2018-03-28T23:19:41.610Z,9.00
2018-03-28T23:22:09.816Z,8.80
2018-03-28T23:24:37.281Z,8.80
2018-03-28T23:27:04.760Z,8.70
2018-03-28T23:29:32.212Z,8.70
2018-03-28T23:31:59.680Z,8.60
2018-03-28T23:34:27.902Z,8.50
2018-03-28T23:36:55.397Z,8.50
2018-03-28T23:39:22.859Z,8.50
2018-03-28T23:41:50.337Z,8.50
2018-03-28T23:44:18.574Z,8.50
2018-03-28T23:46:46.063Z,8.40
2018-03-28T23:49:14.280Z,8.40
2018-03-28T23:51:41.746Z,8.40
2018-03-28T23:54:09.200Z,8.40
2018-03-28T23:56:36.665Z,8.40
2018-03-28T23:59:04.123Z,8.40
